Aviation Digital Data Service (ADDS)

Output produced by METARs form (2109 UTC 27 May 2017)
found at http://aviationweather.gov/adds/metars/
 
KRDU 272057Z 2721/2818 23008KT P6SM SCT050 
     FM272300 25007KT P6SM VCTS SCT050CB BKN080 
     FM280400 VRB03KT P6SM SCT080